createdAt,value
2023-04-11T00:01:23.131Z,7.10
2023-04-11T00:03:50.285Z,4.33
2023-04-11T00:06:17.350Z,3.77
2023-04-11T00:08:44.403Z,4.00
2023-04-11T00:11:11.816Z,4.60
2023-04-11T00:13:38.373Z,4.87
2023-04-11T00:16:05.474Z,4.43
2023-04-11T00:18:35.988Z,4.23
2023-04-11T00:21:06.965Z,4.43
2023-04-11T00:23:33.674Z,3.50
2023-04-11T00:26:00.546Z,2.07
2023-04-11T00:28:27.097Z,3.07
2023-04-11T00:30:53.524Z,3.67
2023-04-11T00:33:20.243Z,2.77
2023-04-11T00:35:47.363Z,2.93
2023-04-11T00:38:13.804Z,5.23
2023-04-11T00:40:40.923Z,4.23
2023-04-11T00:43:07.374Z,3.27
2023-04-11T00:45:34.473Z,3.17
2023-04-11T00:48:01.300Z,3.17
2023-04-11T00:50:28.880Z,3.40
2023-04-11T00:52:56.903Z,4.63
2023-04-11T00:55:23.951Z,4.27
2023-04-11T00:57:53.630Z,3.27
2023-04-11T01:00:20.340Z,3.67
2023-04-11T01:02:47.414Z,4.00
2023-04-11T01:05:15.622Z,5.10
2023-04-11T01:07:46.278Z,2.67
2023-04-11T01:10:15.545Z,3.03
2023-04-11T01:12:42.343Z,3.13
2023-04-11T01:15:09.611Z,2.27
2023-04-11T01:17:39.152Z,3.33
2023-04-11T01:20:07.745Z,3.93
2023-04-11T01:22:35.963Z,2.90
2023-04-11T01:25:04.697Z,2.17
2023-04-11T01:27:32.250Z,3.40
2023-04-11T01:29:58.684Z,3.30
2023-04-11T01:32:25.052Z,3.53
2023-04-11T01:34:53.803Z,3.70
2023-04-11T01:37:20.426Z,3.33
2023-04-11T01:39:47.528Z,3.17
2023-04-11T01:42:14.153Z,2.40
2023-04-11T01:44:41.448Z,3.37
2023-04-11T01:47:07.823Z,2.63
2023-04-11T01:49:36.694Z,3.17
2023-04-11T01:52:03.101Z,2.50
2023-04-11T01:54:29.641Z,2.90
2023-04-11T01:56:57.918Z,2.77
2023-04-11T01:59:24.433Z,3.83
2023-04-11T02:01:51.008Z,2.93
2023-04-11T02:04:17.738Z,3.40
2023-04-11T02:06:45.633Z,2.73
2023-04-11T02:09:12.036Z,4.50
2023-04-11T02:11:38.520Z,3.53
2023-04-11T02:14:06.262Z,3.17
2023-04-11T02:16:33.901Z,3.70
2023-04-11T02:19:00.966Z,4.47
2023-04-11T02:21:28.143Z,2.77
2023-04-11T02:24:00.277Z,4.23
2023-04-11T02:26:27.215Z,3.53
2023-04-11T02:28:56.047Z,2.43
2023-04-11T02:31:22.975Z,4.03
2023-04-11T02:33:49.496Z,3.93
2023-04-11T02:36:18.620Z,4.80
2023-04-11T02:38:45.701Z,5.20
2023-04-11T02:41:12.301Z,7.40
2023-04-11T02:43:38.727Z,3.93
2023-04-11T02:46:12.757Z,7.00
2023-04-11T02:48:41.956Z,5.53
2023-04-11T02:51:09.463Z,7.10
2023-04-11T02:53:36.116Z,6.33
2023-04-11T02:56:02.508Z,7.40
2023-04-11T02:58:29.217Z,6.50
2023-04-11T03:01:00.653Z,2.93
2023-04-11T03:03:27.404Z,3.90
2023-04-11T03:05:54.024Z,5.87
2023-04-11T03:08:23.337Z,4.80
2023-04-11T03:10:52.917Z,7.17
2023-04-11T03:13:22.938Z,5.50
2023-04-11T03:15:49.515Z,3.23
2023-04-11T03:18:16.972Z,5.37
2023-04-11T03:20:46.895Z,5.77
2023-04-11T03:23:15.350Z,4.83
2023-04-11T03:25:44.538Z,5.93
2023-04-11T03:28:13.537Z,8.83
2023-04-11T03:30:42.432Z,9.70
2023-04-11T03:33:12.203Z,9.77
2023-04-11T03:35:39.585Z,4.23
2023-04-11T03:38:06.033Z,10.57
2023-04-11T03:40:33.282Z,5.20
2023-04-11T03:43:10.812Z,4.43
2023-04-11T03:45:37.265Z,6.27
2023-04-11T03:48:07.551Z,4.80
2023-04-11T03:50:48.508Z,6.87
2023-04-11T03:53:19.122Z,10.67
2023-04-11T03:55:49.344Z,10.33
2023-04-11T03:58:18.488Z,6.70
2023-04-11T04:00:46.686Z,9.27
2023-04-11T04:03:13.790Z,6.90
2023-04-11T04:05:41.427Z,10.90
2023-04-11T04:08:08.990Z,5.33
2023-04-11T04:10:42.828Z,3.77
2023-04-11T04:13:09.553Z,10.30
2023-04-11T04:15:40.678Z,5.70
2023-04-11T04:18:08.910Z,5.70
2023-04-11T04:21:02.114Z,9.70
2023-04-11T04:23:32.638Z,6.03
2023-04-11T04:26:17.762Z,7.03
2023-04-11T04:28:54.200Z,8.63
2023-04-11T04:31:29.744Z,8.13
2023-04-11T04:34:09.185Z,9.43
2023-04-11T04:36:47.808Z,6.53
2023-04-11T04:39:19.401Z,6.00
2023-04-11T04:41:49.865Z,9.77
2023-04-11T04:44:17.784Z,7.17
2023-04-11T04:46:55.529Z,10.70
2023-04-11T04:49:24.569Z,9.23
2023-04-11T04:51:51.072Z,11.10
2023-04-11T04:54:19.391Z,9.97
2023-04-11T04:56:48.312Z,9.67
2023-04-11T04:59:16.499Z,10.27
2023-04-11T05:01:50.742Z,11.87
2023-04-11T05:04:23.266Z,9.47
2023-04-11T05:06:53.743Z,8.93
2023-04-11T05:09:20.417Z,9.40
2023-04-11T05:11:50.389Z,11.43
2023-04-11T05:14:21.696Z,12.67
2023-04-11T05:16:48.876Z,10.07
2023-04-11T05:19:15.647Z,11.10
2023-04-11T05:21:47.546Z,13.50
2023-04-11T05:24:14.158Z,10.87
2023-04-11T05:26:40.677Z,9.93
2023-04-11T05:29:07.821Z,10.20
2023-04-11T05:31:34.574Z,11.80
2023-04-11T05:34:02.330Z,12.80
2023-04-11T05:36:29.417Z,10.57
2023-04-11T05:38:55.887Z,7.53
2023-04-11T05:41:22.355Z,6.77
2023-04-11T05:43:52.180Z,8.87
2023-04-11T05:46:23.241Z,7.33
2023-04-11T05:48:49.735Z,14.10
2023-04-11T05:51:16.477Z,8.43
2023-04-11T05:53:43.942Z,6.90
2023-04-11T05:56:12.366Z,3.83
2023-04-11T05:58:39.403Z,3.50
2023-04-11T06:01:07.417Z,4.43
2023-04-11T06:03:34.490Z,5.83
2023-04-11T06:06:01.079Z,5.00
2023-04-11T06:08:27.601Z,6.43
2023-04-11T06:10:54.022Z,5.73
2023-04-11T06:13:20.716Z,6.43
2023-04-11T06:15:47.696Z,6.47
2023-04-11T06:18:14.205Z,8.00
2023-04-11T06:20:40.654Z,6.43
2023-04-11T06:23:07.137Z,5.87
2023-04-11T06:25:33.560Z,4.97
2023-04-11T06:28:00.060Z,3.70
2023-04-11T06:30:26.469Z,6.43
2023-04-11T06:32:53.176Z,4.43
2023-04-11T06:35:20.626Z,6.40
2023-04-11T06:37:47.362Z,4.60
2023-04-11T06:40:13.976Z,2.97
2023-04-11T06:42:42.056Z,4.13
2023-04-11T06:45:10.369Z,3.30
2023-04-11T06:47:36.832Z,3.80
2023-04-11T06:50:03.964Z,6.03
2023-04-11T06:52:30.533Z,3.33
2023-04-11T06:54:57.057Z,4.60
2023-04-11T06:57:23.498Z,4.97
2023-04-11T06:59:49.951Z,7.17
2023-04-11T07:02:16.928Z,5.43
2023-04-11T07:04:43.759Z,4.63
2023-04-11T07:07:10.262Z,2.87
2023-04-11T07:09:36.750Z,7.70
2023-04-11T07:12:03.221Z,3.13
2023-04-11T07:14:29.670Z,4.67
2023-04-11T07:16:56.148Z,4.93
2023-04-11T07:19:22.626Z,5.37
2023-04-11T07:21:49.665Z,5.40
2023-04-11T07:24:18.769Z,4.43
2023-04-11T07:26:46.396Z,4.87
2023-04-11T07:29:14.683Z,5.10
2023-04-11T07:31:44.725Z,6.73
2023-04-11T07:34:11.334Z,6.53
2023-04-11T07:36:37.773Z,5.63
2023-04-11T07:39:04.548Z,4.83
2023-04-11T07:41:31.207Z,5.47
2023-04-11T07:43:58.083Z,6.53
2023-04-11T07:46:24.798Z,10.47
2023-04-11T07:48:51.270Z,11.07
2023-04-11T07:51:18.018Z,10.40
2023-04-11T07:53:44.473Z,8.87
2023-04-11T07:56:10.950Z,9.40
2023-04-11T07:58:37.537Z,6.23
2023-04-11T08:01:05.499Z,9.67
2023-04-11T08:03:32.643Z,9.03
2023-04-11T08:05:59.603Z,7.87
2023-04-11T08:08:26.407Z,7.00
2023-04-11T08:10:53.259Z,10.83
2023-04-11T08:13:19.692Z,11.97
2023-04-11T08:15:47.045Z,6.83
2023-04-11T08:18:13.692Z,7.80
2023-04-11T08:20:40.796Z,8.57
2023-04-11T08:23:08.695Z,11.63
2023-04-11T08:25:36.554Z,7.47
2023-04-11T08:28:04.603Z,7.73
2023-04-11T08:30:31.242Z,7.03
2023-04-11T08:32:58.177Z,7.83
2023-04-11T08:35:24.632Z,10.57
2023-04-11T08:37:51.153Z,11.17
2023-04-11T08:40:18.106Z,7.80
2023-04-11T08:42:45.928Z,7.90
2023-04-11T08:45:12.665Z,8.70
2023-04-11T08:47:39.271Z,7.57
2023-04-11T08:50:06.660Z,8.93
2023-04-11T08:52:34.772Z,9.00
2023-04-11T08:55:01.732Z,7.80
2023-04-11T08:57:31.909Z,8.10
2023-04-11T09:00:02.689Z,7.53
2023-04-11T09:02:29.604Z,7.37
2023-04-11T09:04:57.692Z,5.20
2023-04-11T09:07:24.560Z,5.77
2023-04-11T09:09:51.045Z,9.40
2023-04-11T09:12:21.502Z,4.50
2023-04-11T09:14:48.131Z,4.43
2023-04-11T09:17:16.142Z,4.67
2023-04-11T09:19:42.928Z,5.53
2023-04-11T09:22:09.479Z,3.20
2023-04-11T09:24:37.113Z,4.70
2023-04-11T09:27:17.218Z,3.13
2023-04-11T09:29:53.151Z,3.77
2023-04-11T09:32:38.986Z,3.73
2023-04-11T09:35:22.876Z,2.17
2023-04-11T09:38:00.240Z,4.53
2023-04-11T09:40:31.908Z,3.33
2023-04-11T09:43:03.212Z,5.03
2023-04-11T09:45:38.135Z,3.83
2023-04-11T09:48:08.166Z,6.23
2023-04-11T09:50:36.843Z,4.90
2023-04-11T09:53:05.675Z,3.77
2023-04-11T09:55:32.865Z,4.00
2023-04-11T09:58:00.046Z,10.53
2023-04-11T10:00:32.554Z,4.63
2023-04-11T10:02:59.284Z,3.97
2023-04-11T10:05:28.434Z,5.07
2023-04-11T10:08:07.881Z,3.27
2023-04-11T10:10:36.750Z,4.20
2023-04-11T10:13:03.552Z,4.93
2023-04-11T10:15:30.393Z,4.87
2023-04-11T10:18:11.566Z,3.30
2023-04-11T10:20:43.663Z,4.17
2023-04-11T10:23:11.198Z,6.03
2023-04-11T10:26:00.511Z,6.37
2023-04-11T10:28:36.737Z,6.70
2023-04-11T10:31:05.271Z,5.77
2023-04-11T10:33:34.781Z,6.17
2023-04-11T10:36:11.407Z,5.70
2023-04-11T10:38:41.195Z,4.43
2023-04-11T10:41:34.717Z,3.67
2023-04-11T10:44:21.050Z,5.80
2023-04-11T10:46:54.150Z,5.73
2023-04-11T10:49:39.803Z,3.53
2023-04-11T10:52:22.795Z,2.90
2023-04-11T10:54:51.207Z,5.87
2023-04-11T10:57:18.189Z,4.87
2023-04-11T10:59:44.665Z,4.00
2023-04-11T11:02:11.833Z,7.43
2023-04-11T11:04:40.385Z,4.53
2023-04-11T11:07:15.088Z,3.10
2023-04-11T11:09:48.461Z,7.47
2023-04-11T11:12:17.270Z,3.30
2023-04-11T11:14:46.212Z,7.37
2023-04-11T11:17:14.272Z,2.90
2023-04-11T11:19:44.965Z,5.60
2023-04-11T11:22:28.069Z,7.70
2023-04-11T11:24:54.620Z,4.00
2023-04-11T11:27:23.664Z,5.23
2023-04-11T11:29:50.997Z,6.77
2023-04-11T11:32:28.354Z,4.83
2023-04-11T11:34:55.528Z,4.07
2023-04-11T11:37:23.153Z,6.57
2023-04-11T11:39:50.031Z,6.17
2023-04-11T11:42:18.340Z,4.10
2023-04-11T11:44:44.934Z,7.73
2023-04-11T11:47:14.981Z,5.10
2023-04-11T11:49:47.341Z,6.87
2023-04-11T11:52:43.331Z,4.80
2023-04-11T11:55:19.252Z,5.03
2023-04-11T11:57:48.285Z,3.80
2023-04-11T12:00:23.523Z,3.90
2023-04-11T12:02:55.110Z,6.27
2023-04-11T12:05:24.798Z,3.77
2023-04-11T12:07:58.597Z,7.77
2023-04-11T12:10:35.720Z,6.57
2023-04-11T12:13:02.174Z,8.90
2023-04-11T12:15:28.810Z,10.43
2023-04-11T12:17:55.619Z,4.53
2023-04-11T12:20:27.974Z,7.67
2023-04-11T12:22:55.395Z,6.77
2023-04-11T12:25:22.584Z,5.90
2023-04-11T12:27:49.512Z,7.83
2023-04-11T12:30:16.275Z,5.23
2023-04-11T12:32:43.850Z,5.57
2023-04-11T12:35:11.381Z,8.53
2023-04-11T12:37:38.458Z,9.10
2023-04-11T12:40:12.623Z,6.00
2023-04-11T12:42:53.162Z,3.87
2023-04-11T12:45:22.364Z,3.27
2023-04-11T12:47:49.360Z,5.77
2023-04-11T12:50:16.240Z,6.77
2023-04-11T12:52:42.854Z,4.33
2023-04-11T12:55:09.861Z,5.73
2023-04-11T12:57:39.717Z,5.30
2023-04-11T13:00:07.173Z,7.57
2023-04-11T13:02:42.154Z,7.23
2023-04-11T13:05:11.339Z,8.83
2023-04-11T13:07:37.988Z,5.97
2023-04-11T13:10:07.799Z,6.03
2023-04-11T13:12:39.613Z,6.77
2023-04-11T13:15:07.991Z,5.77
2023-04-11T13:17:34.973Z,7.43
2023-04-11T13:20:07.076Z,8.20
2023-04-11T13:22:34.690Z,5.07
2023-04-11T13:25:01.197Z,5.67
2023-04-11T13:27:32.093Z,5.00
2023-04-11T13:29:58.703Z,5.80
2023-04-11T13:32:32.669Z,5.73
2023-04-11T13:34:59.371Z,8.83
2023-04-11T13:37:25.869Z,6.77
2023-04-11T13:39:52.388Z,5.50
2023-04-11T13:42:18.956Z,5.40
2023-04-11T13:44:53.171Z,7.10
2023-04-11T13:47:19.683Z,5.73
2023-04-11T13:49:46.306Z,7.13
2023-04-11T13:52:12.786Z,3.67
2023-04-11T13:54:39.295Z,5.50
2023-04-11T13:57:09.270Z,3.93
2023-04-11T13:59:36.296Z,4.50
2023-04-11T14:02:02.905Z,4.27
2023-04-11T14:04:29.500Z,7.17
2023-04-11T14:06:55.947Z,6.20
2023-04-11T14:09:22.617Z,4.17
2023-04-11T14:11:49.178Z,3.97
2023-04-11T14:14:15.853Z,4.43
2023-04-11T14:16:42.471Z,5.17
2023-04-11T14:19:08.956Z,2.20
2023-04-11T14:21:35.865Z,4.97
2023-04-11T14:24:02.864Z,3.27
2023-04-11T14:26:29.331Z,4.27
2023-04-11T14:28:55.959Z,5.27
2023-04-11T14:31:22.781Z,4.43
2023-04-11T14:33:49.562Z,3.37
2023-04-11T14:36:16.493Z,2.43
2023-04-11T14:38:42.923Z,3.40
2023-04-11T14:41:10.374Z,3.73
2023-04-11T14:43:36.828Z,5.53
2023-04-11T14:46:03.397Z,4.50
2023-04-11T14:48:29.923Z,5.10
2023-04-11T14:50:56.366Z,4.13
2023-04-11T14:53:23.053Z,5.67
2023-04-11T14:55:49.809Z,2.97
2023-04-11T14:58:17.235Z,3.63
2023-04-11T15:00:44.730Z,7.20
2023-04-11T15:03:12.302Z,6.60
2023-04-11T15:05:39.120Z,4.20
2023-04-11T15:08:06.454Z,2.33
2023-04-11T15:10:33.611Z,4.90
2023-04-11T15:13:00.150Z,6.13
2023-04-11T15:15:26.611Z,4.87
2023-04-11T15:18:26.914Z,5.20
2023-04-11T15:20:54.840Z,4.77
2023-04-11T15:23:21.558Z,3.27
2023-04-11T15:26:01.000Z,4.53
2023-04-11T15:28:32.785Z,4.13
2023-04-11T15:30:59.421Z,4.37
2023-04-11T15:33:26.421Z,5.47
2023-04-11T15:35:56.795Z,6.70
2023-04-11T15:38:25.499Z,6.23
2023-04-11T15:40:54.194Z,7.40
2023-04-11T15:43:21.566Z,4.80
2023-04-11T15:45:48.442Z,7.53
2023-04-11T15:48:15.184Z,6.97
2023-04-11T15:50:42.907Z,13.70
2023-04-11T15:53:09.660Z,7.67
2023-04-11T15:55:40.888Z,5.37
2023-04-11T15:58:08.806Z,4.17
2023-04-11T16:00:36.616Z,7.03
2023-04-11T16:03:04.581Z,6.37
2023-04-11T16:05:36.678Z,4.30
2023-04-11T16:08:03.104Z,4.00
2023-04-11T16:10:30.200Z,6.07
2023-04-11T16:12:56.778Z,6.33
2023-04-11T16:15:23.623Z,5.40
2023-04-11T16:17:50.255Z,5.70
2023-04-11T16:20:21.301Z,7.13
2023-04-11T16:22:48.463Z,8.23
2023-04-11T16:25:16.362Z,5.17
2023-04-11T16:27:42.932Z,5.00
2023-04-11T16:30:09.612Z,5.00
2023-04-11T16:32:39.135Z,6.40
2023-04-11T16:35:05.964Z,5.00
2023-04-11T16:37:32.789Z,8.13
2023-04-11T16:40:00.214Z,7.00
2023-04-11T16:42:26.767Z,4.63
2023-04-11T16:44:53.216Z,7.43
2023-04-11T16:47:20.502Z,8.43
2023-04-11T16:49:47.504Z,3.93
2023-04-11T16:52:13.975Z,6.20
2023-04-11T16:54:40.358Z,6.00
2023-04-11T16:57:06.768Z,5.50
2023-04-11T16:59:33.614Z,5.03
2023-04-11T17:02:00.193Z,7.27
2023-04-11T17:04:28.133Z,4.63
2023-04-11T17:06:55.784Z,4.10
2023-04-11T17:09:22.368Z,4.87
2023-04-11T17:11:49.064Z,4.03
2023-04-11T17:14:16.059Z,5.67
2023-04-11T17:16:43.417Z,4.40
2023-04-11T17:19:10.399Z,6.77
2023-04-11T17:21:36.850Z,5.03
2023-04-11T17:24:03.434Z,5.80
2023-04-11T17:26:29.883Z,5.27
2023-04-11T17:28:56.886Z,7.23
2023-04-11T17:31:24.100Z,11.37
2023-04-11T17:33:50.562Z,8.20
2023-04-11T17:36:18.548Z,6.40
2023-04-11T17:38:46.406Z,6.27
2023-04-11T17:41:15.385Z,4.53
2023-04-11T17:43:43.529Z,6.73
2023-04-11T17:46:12.231Z,7.30
2023-04-11T17:48:38.958Z,7.17
2023-04-11T17:51:05.970Z,4.53
2023-04-11T17:53:33.814Z,2.67
2023-04-11T17:56:05.645Z,5.10
2023-04-11T17:58:33.718Z,6.27
2023-04-11T18:01:00.249Z,3.23
2023-04-11T18:03:26.890Z,4.30
2023-04-11T18:05:54.618Z,7.53
2023-04-11T18:08:28.783Z,5.57
2023-04-11T18:10:59.763Z,5.33
2023-04-11T18:13:27.281Z,4.77
2023-04-11T18:15:54.115Z,6.73
2023-04-11T18:18:20.706Z,5.57
2023-04-11T18:20:47.913Z,6.50
2023-04-11T18:23:14.341Z,4.73
2023-04-11T18:25:40.768Z,4.40
2023-04-11T18:28:07.236Z,4.13
2023-04-11T18:30:33.912Z,3.73
2023-04-11T18:33:00.438Z,4.03
2023-04-11T18:35:27.876Z,5.47
2023-04-11T18:37:54.535Z,2.60
2023-04-11T18:40:21.319Z,4.00
2023-04-11T18:42:50.443Z,5.67
2023-04-11T18:45:20.462Z,5.13
2023-04-11T18:47:47.585Z,4.30
2023-04-11T18:50:15.363Z,7.50
2023-04-11T18:52:42.632Z,6.70
2023-04-11T18:55:10.502Z,5.73
2023-04-11T18:57:38.494Z,5.33
2023-04-11T19:00:17.456Z,7.37
2023-04-11T19:02:45.650Z,5.33
2023-04-11T19:05:13.662Z,8.47
2023-04-11T19:07:41.748Z,6.37
2023-04-11T19:10:09.432Z,5.07
2023-04-11T19:12:37.074Z,7.17
2023-04-11T19:15:06.478Z,7.00
2023-04-11T19:17:35.059Z,16.67
2023-04-11T19:20:02.533Z,22.03
2023-04-11T19:22:29.865Z,15.40
2023-04-11T19:24:56.436Z,22.97
2023-04-11T19:27:23.380Z,20.23
2023-04-11T19:29:50.079Z,12.10
2023-04-11T19:32:18.968Z,10.57
2023-04-11T19:34:46.737Z,8.80
2023-04-11T19:37:13.885Z,13.23
2023-04-11T19:39:41.320Z,12.10
2023-04-11T19:42:10.192Z,8.23
2023-04-11T19:44:38.527Z,8.97
2023-04-11T19:47:05.438Z,7.73
2023-04-11T19:49:33.548Z,8.70
2023-04-11T19:52:00.069Z,10.13
2023-04-11T19:54:26.634Z,11.13
2023-04-11T19:56:53.364Z,11.70
2023-04-11T19:59:20.594Z,7.20
2023-04-11T20:01:47.846Z,8.57
2023-04-11T20:04:15.881Z,8.20
2023-04-11T20:06:47.614Z,10.53
2023-04-11T20:09:14.155Z,8.37
2023-04-11T20:11:41.710Z,9.90
2023-04-11T20:14:08.529Z,10.77
2023-04-11T20:16:35.172Z,9.33
2023-04-11T20:19:01.826Z,11.20
2023-04-11T20:21:28.505Z,11.90
2023-04-11T20:23:55.016Z,8.53
2023-04-11T20:26:22.594Z,8.60
2023-04-11T20:28:50.626Z,8.37
2023-04-11T20:31:17.811Z,8.77
2023-04-11T20:33:47.817Z,10.23
2023-04-11T20:36:15.512Z,7.73
2023-04-11T20:38:42.083Z,9.77
2023-04-11T20:41:08.737Z,10.37
2023-04-11T20:43:41.598Z,9.33
2023-04-11T20:46:08.786Z,11.60
2023-04-11T20:48:36.051Z,12.47
2023-04-11T20:51:04.404Z,8.60
2023-04-11T20:53:30.814Z,6.83
2023-04-11T20:55:57.351Z,6.67
2023-04-11T20:58:24.068Z,7.00
2023-04-11T21:00:50.547Z,8.20
2023-04-11T21:03:17.932Z,8.57
2023-04-11T21:05:46.692Z,9.47
2023-04-11T21:08:13.410Z,8.20
2023-04-11T21:10:39.831Z,9.37
2023-04-11T21:13:06.292Z,8.63
2023-04-11T21:15:35.635Z,9.20
2023-04-11T21:18:02.110Z,8.07
2023-04-11T21:20:28.745Z,8.53
2023-04-11T21:22:55.311Z,8.07
2023-04-11T21:25:23.187Z,9.70
2023-04-11T21:27:49.976Z,7.83
2023-04-11T21:30:17.082Z,6.73
2023-04-11T21:32:43.553Z,7.23
2023-04-11T21:35:11.138Z,8.33
2023-04-11T21:37:37.601Z,9.13
2023-04-11T21:40:04.580Z,10.97
2023-04-11T21:42:31.482Z,12.73
2023-04-11T21:44:58.019Z,8.57
2023-04-11T21:47:24.533Z,11.33
2023-04-11T21:49:51.013Z,8.70
2023-04-11T21:52:18.103Z,8.63
2023-04-11T21:54:45.045Z,7.33
2023-04-11T21:57:11.610Z,8.97
2023-04-11T21:59:38.958Z,12.43
2023-04-11T22:02:05.889Z,10.30
2023-04-11T22:04:44.338Z,11.70
2023-04-11T22:07:25.305Z,8.13
2023-04-11T22:09:59.480Z,7.40
2023-04-11T22:12:29.423Z,7.87
2023-04-11T22:14:57.031Z,11.17
2023-04-11T22:17:23.965Z,6.50
2023-04-11T22:19:50.545Z,9.00
2023-04-11T22:22:18.917Z,7.43
2023-04-11T22:24:53.441Z,6.83
2023-04-11T22:27:20.044Z,6.90
2023-04-11T22:29:46.988Z,6.63
2023-04-11T22:32:13.378Z,7.63
2023-04-11T22:34:39.824Z,7.87
2023-04-11T22:37:06.209Z,11.10
2023-04-11T22:39:34.239Z,7.43
2023-04-11T22:42:00.716Z,9.63
2023-04-11T22:44:27.131Z,7.33
2023-04-11T22:46:59.795Z,7.87
2023-04-11T22:49:27.228Z,6.87
2023-04-11T22:51:59.022Z,9.07
2023-04-11T22:54:27.150Z,9.97
2023-04-11T22:56:56.580Z,9.07
2023-04-11T22:59:24.361Z,8.93
2023-04-11T23:01:51.552Z,8.17
2023-04-11T23:04:19.813Z,8.33
2023-04-11T23:06:53.492Z,8.87
2023-04-11T23:09:20.729Z,9.27
2023-04-11T23:11:47.901Z,5.87
2023-04-11T23:14:18.184Z,6.07
2023-04-11T23:16:45.146Z,9.90
2023-04-11T23:19:11.993Z,5.53
2023-04-11T23:21:38.575Z,7.30
2023-04-11T23:24:06.828Z,8.37
2023-04-11T23:26:33.967Z,7.17
2023-04-11T23:29:02.755Z,7.90
2023-04-11T23:31:30.907Z,6.23
2023-04-11T23:33:57.555Z,6.07
2023-04-11T23:36:24.392Z,6.27
2023-04-11T23:38:51.647Z,4.60
2023-04-11T23:41:18.812Z,7.17
2023-04-11T23:43:45.547Z,5.40
2023-04-11T23:46:13.095Z,6.63
2023-04-11T23:48:39.522Z,6.33
2023-04-11T23:51:06.473Z,6.77
2023-04-11T23:53:34.088Z,7.50
2023-04-11T23:56:00.651Z,7.97
2023-04-11T23:58:27.819Z,6.30
